Time;durP1;ratioP1;P1;durP2;ratioP2;P2;SDS_P1;SDS_P2;PMS_P1;PMS_P2;Temp;Humidity;BMP_temperature;BMP_pressure;BME280_temperature;BME280_humidity;BME280_pressure;Samples;Min_cycle;Max_cycle;Signal;HPM_P1;HPM_P2
2023/07/29 00:02:40;;;;;;;5.35;3.78;;;;;;;;;;6245766;28;20045;-81
2023/07/29 00:05:42;;;;;;;12.32;4.40;;;;;;;;;;6250855;28;20057;-79
2023/07/29 00:08:43;;;;;;;6.63;4.55;;;;;;;;;;6244688;28;20053;-80
2023/07/29 00:11:45;;;;;;;7.30;4.63;;;;;;;;;;6259993;28;20049;-81
2023/07/29 00:14:47;;;;;;;7.80;4.78;;;;;;;;;;6258870;28;20461;-82
2023/07/29 00:17:48;;;;;;;9.48;4.25;;;;;;;;;;6260424;28;20041;-81
2023/07/29 00:20:50;;;;;;;7.25;4.20;;;;;;;;;;6247042;28;20068;-78
2023/07/29 00:23:52;;;;;;;11.05;4.43;;;;;;;;;;6249548;28;20067;-78
2023/07/29 00:26:54;;;;;;;6.13;4.55;;;;;;;;;;6259511;28;20049;-78
2023/07/29 00:29:55;;;;;;;4.03;3.50;;;;;;;;;;6248937;28;20032;-79
2023/07/29 00:32:57;;;;;;;4.70;2.95;;;;;;;;;;6274604;28;20045;-77
2023/07/29 00:36:01;;;;;;;4.28;3.13;;;;;;;;;;6259776;28;20037;-77
2023/07/29 00:39:03;;;;;;;6.13;2.92;;;;;;;;;;6253464;28;20045;-79
2023/07/29 00:42:06;;;;;;;5.60;3.40;;;;;;;;;;6266357;28;20060;-78
2023/07/29 00:45:09;;;;;;;6.05;3.40;;;;;;;;;;6240973;28;20049;-78
2023/07/29 00:48:11;;;;;;;6.90;3.60;;;;;;;;;;6262818;28;20127;-79
2023/07/29 00:51:14;;;;;;;5.95;3.50;;;;;;;;;;6263479;28;20041;-79
2023/07/29 00:54:16;;;;;;;6.80;3.22;;;;;;;;;;6257762;28;20041;-81
2023/07/29 00:57:19;;;;;;;3.58;3.00;;;;;;;;;;6243178;28;20041;-79
2023/07/29 01:00:21;;;;;;;3.35;3.05;;;;;;;;;;6246726;28;20528;-80
2023/07/29 01:03:23;;;;;;;4.28;2.90;;;;;;;;;;6246042;28;20045;-80
2023/07/29 01:06:50;;;;;;;3.95;3.10;;;;;;;;;;6243154;28;20040;-81
2023/07/29 01:10:03;;;;;;;4.75;3.38;;;;;;;;;;6260285;28;20055;-80
2023/07/29 01:13:32;;;;;;;4.65;3.55;;;;;;;;;;6243282;28;20534;-78
2023/07/29 01:16:43;;;;;;;4.22;3.10;;;;;;;;;;6227519;28;20047;-79
2023/07/29 01:19:56;;;;;;;5.43;3.22;;;;;;;;;;6243965;28;20052;-79
2023/07/29 01:22:58;;;;;;;3.88;3.13;;;;;;;;;;6259425;28;20048;-82
2023/07/29 01:26:00;;;;;;;8.02;3.35;;;;;;;;;;6254650;28;20060;-79
2023/07/29 01:29:02;;;;;;;4.80;2.87;;;;;;;;;;6252867;28;20044;-78
2023/07/29 01:32:34;;;;;;;5.78;2.85;;;;;;;;;;6259008;28;20044;-77
2023/07/29 01:35:42;;;;;;;4.67;3.30;;;;;;;;;;6245467;28;20503;-82
2023/07/29 01:38:45;;;;;;;6.68;3.30;;;;;;;;;;6256489;28;20069;-80
2023/07/29 01:41:48;;;;;;;3.28;2.92;;;;;;;;;;6241342;28;20049;-79
2023/07/29 01:44:50;;;;;;;5.65;3.08;;;;;;;;;;6229214;28;20051;-78
2023/07/29 01:47:52;;;;;;;4.32;3.03;;;;;;;;;;6244997;28;20074;-82
2023/07/29 01:50:55;;;;;;;3.33;2.85;;;;;;;;;;6229825;28;20052;-82
2023/07/29 01:53:58;;;;;;;5.82;3.28;;;;;;;;;;6250275;28;20068;-82
2023/07/29 01:57:00;;;;;;;4.13;3.20;;;;;;;;;;6245853;28;20108;-79
2023/07/29 02:00:03;;;;;;;4.25;3.20;;;;;;;;;;6254571;28;20129;-80
2023/07/29 02:03:14;;;;;;;4.40;3.38;;;;;;;;;;6240099;28;20049;-79
2023/07/29 02:06:16;;;;;;;3.22;2.92;;;;;;;;;;6256429;28;20138;-81
2023/07/29 02:09:18;;;;;;;4.23;2.87;;;;;;;;;;6241408;28;20193;-80
2023/07/29 02:12:20;;;;;;;3.78;3.30;;;;;;;;;;6240041;28;20046;-80
2023/07/29 02:15:21;;;;;;;4.07;3.47;;;;;;;;;;6251455;28;20416;-79
2023/07/29 02:18:23;;;;;;;4.90;3.50;;;;;;;;;;6241467;28;20558;-82
2023/07/29 02:21:24;;;;;;;4.18;3.20;;;;;;;;;;6243207;28;20443;-82
2023/07/29 02:24:26;;;;;;;5.55;3.45;;;;;;;;;;6225585;28;20045;-80
2023/07/29 02:27:28;;;;;;;5.22;3.22;;;;;;;;;;6239286;28;20049;-79
2023/07/29 02:30:30;;;;;;;5.05;3.63;;;;;;;;;;6253997;28;20052;-79
2023/07/29 02:33:32;;;;;;;4.07;3.03;;;;;;;;;;6218458;28;20132;-79
2023/07/29 02:36:34;;;;;;;5.10;3.55;;;;;;;;;;6236820;28;20516;-79
2023/07/29 02:39:37;;;;;;;6.50;3.85;;;;;;;;;;6243111;28;20056;-81
2023/07/29 02:42:39;;;;;;;5.93;3.90;;;;;;;;;;6243307;28;20422;-80
2023/07/29 02:45:41;;;;;;;9.53;3.77;;;;;;;;;;6244305;28;20045;-79
2023/07/29 02:48:44;;;;;;;5.55;4.22;;;;;;;;;;6254587;28;20444;-79
2023/07/29 02:51:46;;;;;;;5.10;4.32;;;;;;;;;;6242967;28;20045;-81
2023/07/29 02:54:48;;;;;;;6.95;4.47;;;;;;;;;;6240303;28;20041;-80
2023/07/29 02:57:49;;;;;;;5.32;4.35;;;;;;;;;;6250291;28;20045;-80
2023/07/29 03:00:51;;;;;;;4.18;3.78;;;;;;;;;;6244370;28;20048;-77
2023/07/29 03:03:53;;;;;;;4.40;3.70;;;;;;;;;;6258048;28;20114;-79
2023/07/29 03:06:55;;;;;;;4.53;4.10;;;;;;;;;;6252489;28;20053;-82
2023/07/29 03:09:57;;;;;;;4.43;3.80;;;;;;;;;;6234638;28;20423;-80
2023/07/29 03:12:58;;;;;;;5.72;3.70;;;;;;;;;;6240606;28;20411;-80
2023/07/29 03:16:09;;;;;;;4.40;3.72;;;;;;;;;;6226837;28;20154;-79
2023/07/29 03:19:13;;;;;;;4.00;3.60;;;;;;;;;;6246215;28;20042;-80
2023/07/29 03:22:15;;;;;;;5.78;3.90;;;;;;;;;;6244543;28;20037;-77
2023/07/29 03:25:17;;;;;;;4.30;3.90;;;;;;;;;;6250287;28;20521;-79
2023/07/29 03:28:18;;;;;;;5.10;4.07;;;;;;;;;;6245382;28;20037;-77
2023/07/29 03:31:20;;;;;;;5.38;3.85;;;;;;;;;;6261403;28;21348;-80
2023/07/29 03:34:22;;;;;;;6.88;3.70;;;;;;;;;;6259591;28;20126;-80
2023/07/29 03:37:24;;;;;;;7.13;4.88;;;;;;;;;;6267354;28;20048;-78
2023/07/29 03:40:26;;;;;;;7.30;4.57;;;;;;;;;;6259799;28;20048;-78
2023/07/29 03:43:27;;;;;;;5.20;4.60;;;;;;;;;;6245755;28;20115;-80
2023/07/29 03:46:31;;;;;;;5.55;4.53;;;;;;;;;;6246646;28;20050;-81
2023/07/29 03:49:33;;;;;;;4.83;4.33;;;;;;;;;;6263473;28;20037;-81
2023/07/29 03:52:34;;;;;;;5.18;4.68;;;;;;;;;;6259116;28;20043;-81
2023/07/29 03:55:36;;;;;;;4.68;4.10;;;;;;;;;;6263514;28;20418;-80
2023/07/29 03:58:38;;;;;;;5.00;4.50;;;;;;;;;;6239866;28;20321;-77
2023/07/29 04:01:40;;;;;;;4.97;4.45;;;;;;;;;;6252604;28;20037;-78
2023/07/29 04:04:44;;;;;;;5.20;4.53;;;;;;;;;;6240924;28;20068;-77
2023/07/29 04:07:46;;;;;;;6.13;4.72;;;;;;;;;;6251967;28;20053;-79
2023/07/29 04:10:48;;;;;;;5.80;4.40;;;;;;;;;;6239404;28;20415;-79
2023/07/29 04:13:49;;;;;;;6.50;4.65;;;;;;;;;;6249065;28;20048;-79
2023/07/29 04:16:51;;;;;;;6.80;4.93;;;;;;;;;;6227337;28;20041;-77
2023/07/29 04:19:52;;;;;;;7.85;5.00;;;;;;;;;;6241479;28;20056;-80
2023/07/29 04:22:57;;;;;;;7.88;4.80;;;;;;;;;;6241534;28;20037;-80
2023/07/29 04:25:59;;;;;;;6.13;4.53;;;;;;;;;;6228604;28;20045;-80
2023/07/29 04:29:00;;;;;;;4.40;4.00;;;;;;;;;;6242688;28;20040;-80
2023/07/29 04:32:03;;;;;;;6.30;4.88;;;;;;;;;;6256271;28;20048;-80
2023/07/29 04:35:07;;;;;;;4.57;4.07;;;;;;;;;;6255150;28;20089;-79
2023/07/29 04:38:11;;;;;;;5.03;4.53;;;;;;;;;;6242204;28;20128;-77
2023/07/29 04:41:12;;;;;;;5.25;4.35;;;;;;;;;;6258923;28;20049;-79
2023/07/29 04:44:14;;;;;;;6.55;4.32;;;;;;;;;;6239392;28;20041;-80
2023/07/29 04:47:16;;;;;;;4.72;4.32;;;;;;;;;;6258989;28;20129;-79
2023/07/29 04:50:18;;;;;;;6.47;4.53;;;;;;;;;;6248790;28;20097;-80
2023/07/29 04:53:20;;;;;;;4.25;3.83;;;;;;;;;;6236000;28;20159;-78
2023/07/29 04:56:22;;;;;;;4.72;4.10;;;;;;;;;;6252112;28;20044;-79
2023/07/29 04:59:23;;;;;;;7.07;4.20;;;;;;;;;;6254817;28;20048;-78
2023/07/29 05:02:26;;;;;;;4.33;3.93;;;;;;;;;;6237236;28;20110;-76
2023/07/29 05:05:29;;;;;;;4.90;3.95;;;;;;;;;;6223529;28;20056;-79
2023/07/29 05:08:31;;;;;;;4.95;4.45;;;;;;;;;;6229476;28;20059;-79
2023/07/29 05:11:33;;;;;;;5.43;4.72;;;;;;;;;;6254586;28;20423;-80
2023/07/29 05:14:34;;;;;;;6.78;5.00;;;;;;;;;;6249275;28;20056;-78
2023/07/29 05:17:36;;;;;;;5.03;4.15;;;;;;;;;;6239055;28;20519;-77
2023/07/29 05:20:38;;;;;;;4.30;3.90;;;;;;;;;;6245050;28;20465;-79
2023/07/29 05:23:40;;;;;;;4.38;3.80;;;;;;;;;;6258093;28;20106;-77
2023/07/29 05:26:41;;;;;;;3.88;3.55;;;;;;;;;;6252247;28;20041;-78
2023/07/29 05:29:43;;;;;;;4.22;3.80;;;;;;;;;;6251174;28;20409;-79
2023/07/29 05:32:45;;;;;;;3.92;3.55;;;;;;;;;;6240754;28;20724;-79
2023/07/29 05:35:47;;;;;;;4.10;3.37;;;;;;;;;;6237978;28;20041;-78
2023/07/29 05:38:51;;;;;;;5.57;3.42;;;;;;;;;;6219097;28;21456;-78
2023/07/29 05:41:52;;;;;;;4.03;3.35;;;;;;;;;;6229576;28;20064;-80
2023/07/29 05:44:54;;;;;;;4.57;3.38;;;;;;;;;;6247965;28;20045;-78
2023/07/29 05:47:56;;;;;;;4.50;3.88;;;;;;;;;;6230268;28;20048;-77
2023/07/29 05:50:57;;;;;;;4.00;3.60;;;;;;;;;;6269889;28;20059;-77
2023/07/29 05:53:59;;;;;;;4.20;3.22;;;;;;;;;;6253902;28;20537;-79
2023/07/29 05:57:01;;;;;;;5.70;3.53;;;;;;;;;;6248163;28;20057;-79
2023/07/29 06:00:04;;;;;;;;;;;;;;;;;;6219254;28;20052;-76
2023/07/29 06:03:13;;;;;;;3.67;3.33;;;;;;;;;;6252814;28;20473;-79
2023/07/29 06:06:16;;;;;;;5.10;3.73;;;;;;;;;;6255849;28;20379;-77
2023/07/29 06:09:19;;;;;;;3.75;3.45;;;;;;;;;;6250612;28;20470;-77
2023/07/29 06:12:21;;;;;;;5.18;3.72;;;;;;;;;;6235017;28;20041;-79
2023/07/29 06:15:23;;;;;;;3.75;3.35;;;;;;;;;;6252089;28;20064;-78
2023/07/29 06:18:25;;;;;;;4.73;3.40;;;;;;;;;;6252092;28;20041;-78
2023/07/29 06:21:27;;;;;;;3.83;3.53;;;;;;;;;;6233740;28;20437;-79
2023/07/29 06:24:28;;;;;;;3.83;3.53;;;;;;;;;;6254675;28;20048;-77
2023/07/29 06:27:30;;;;;;;3.83;3.30;;;;;;;;;;6254329;28;20145;-78
2023/07/29 06:30:32;;;;;;;4.00;3.63;;;;;;;;;;6247397;28;20073;-76
2023/07/29 06:33:33;;;;;;;4.13;3.30;;;;;;;;;;6252770;28;20064;-77
2023/07/29 06:36:35;;;;;;;5.40;3.60;;;;;;;;;;6258021;28;20064;-76
2023/07/29 06:39:37;;;;;;;4.95;3.22;;;;;;;;;;6266632;28;20052;-77
2023/07/29 06:42:39;;;;;;;7.35;3.30;;;;;;;;;;6267095;28;20056;-79
2023/07/29 06:45:40;;;;;;;5.15;3.80;;;;;;;;;;6274547;28;20045;-76
2023/07/29 06:48:42;;;;;;;5.25;3.42;;;;;;;;;;6271981;28;20056;-76
2023/07/29 06:51:44;;;;;;;6.47;3.42;;;;;;;;;;6252154;28;20049;-77
2023/07/29 06:54:45;;;;;;;7.82;3.40;;;;;;;;;;6270603;28;20046;-77
2023/07/29 06:57:47;;;;;;;4.68;3.45;;;;;;;;;;6262070;28;20042;-77
2023/07/29 07:00:49;;;;;;;4.72;3.97;;;;;;;;;;6262307;28;20504;-77
2023/07/29 07:03:54;;;;;;;3.88;3.58;;;;;;;;;;6260848;28;20644;-77
2023/07/29 07:06:55;;;;;;;4.82;3.63;;;;;;;;;;6257338;28;20099;-79
2023/07/29 07:09:57;;;;;;;4.10;3.70;;;;;;;;;;6260377;28;20183;-77
2023/07/29 07:13:02;;;;;;;3.80;3.40;;;;;;;;;;6259091;28;20055;-76
2023/07/29 07:16:04;;;;;;;5.20;3.40;;;;;;;;;;6263965;28;20061;-75
2023/07/29 07:19:06;;;;;;;5.83;3.23;;;;;;;;;;6262665;28;20583;-75
2023/07/29 07:22:07;;;;;;;3.45;3.15;;;;;;;;;;6261198;28;20391;-76
2023/07/29 07:25:09;;;;;;;3.70;3.17;;;;;;;;;;6260598;28;20064;-78
2023/07/29 07:28:11;;;;;;;4.00;3.30;;;;;;;;;;6262513;28;20053;-78
2023/07/29 07:31:13;;;;;;;3.50;3.20;;;;;;;;;;6259121;28;20045;-77
2023/07/29 07:34:14;;;;;;;4.68;3.85;;;;;;;;;;6264481;28;20061;-76
2023/07/29 07:37:16;;;;;;;4.15;3.10;;;;;;;;;;6260431;28;20057;-77
2023/07/29 07:40:18;;;;;;;5.35;3.45;;;;;;;;;;6268778;28;20679;-76
2023/07/29 07:43:19;;;;;;;4.25;3.40;;;;;;;;;;6262148;28;20057;-77
2023/07/29 07:46:21;;;;;;;3.13;2.88;;;;;;;;;;6269412;28;20300;-76
2023/07/29 07:49:23;;;;;;;5.05;3.20;;;;;;;;;;6242478;28;20052;-78
2023/07/29 07:52:24;;;;;;;3.78;3.33;;;;;;;;;;6262314;28;20045;-78
2023/07/29 07:55:26;;;;;;;5.53;2.63;;;;;;;;;;6259618;28;20076;-78
2023/07/29 07:58:28;;;;;;;3.58;2.80;;;;;;;;;;6243911;28;20053;-76
2023/07/29 08:01:37;;;;;;;3.88;2.80;;;;;;;;;;6277244;28;20048;-77
2023/07/29 08:04:39;;;;;;;4.72;2.50;;;;;;;;;;6271025;28;20052;-78
2023/07/29 08:07:40;;;;;;;2.35;2.15;;;;;;;;;;6262682;28;20041;-78
2023/07/29 08:10:42;;;;;;;3.30;2.63;;;;;;;;;;6255628;28;20057;-76
2023/07/29 08:13:44;;;;;;;3.50;2.40;;;;;;;;;;6235688;28;20114;-79
2023/07/29 08:16:46;;;;;;;4.43;1.90;;;;;;;;;;6254305;28;20056;-79
2023/07/29 08:19:47;;;;;;;2.00;1.80;;;;;;;;;;6256016;28;20065;-79
2023/07/29 08:22:49;;;;;;;2.85;1.63;;;;;;;;;;6237243;28;20045;-79
2023/07/29 08:25:56;;;;;;;1.58;1.48;;;;;;;;;;6254668;28;20068;-78
2023/07/29 08:28:58;;;;;;;2.72;1.60;;;;;;;;;;6259694;28;20056;-79
2023/07/29 08:31:59;;;;;;;1.77;1.38;;;;;;;;;;6249761;28;20052;-77
2023/07/29 08:35:01;;;;;;;1.48;1.38;;;;;;;;;;6254768;28;20057;-77
2023/07/29 08:38:04;;;;;;;2.03;1.43;;;;;;;;;;6249381;28;20049;-80
2023/07/29 08:41:24;;;;;;;4.18;1.60;;;;;;;;;;6251154;28;20143;-77
2023/07/29 08:44:30;;;;;;;1.85;1.52;;;;;;;;;;6250457;28;20126;-79
2023/07/29 08:47:32;;;;;;;1.92;1.30;;;;;;;;;;6249416;28;20581;-78
2023/07/29 08:50:35;;;;;;;3.33;1.50;;;;;;;;;;6246202;28;20045;-78
2023/07/29 08:53:39;;;;;;;2.42;1.30;;;;;;;;;;6248214;28;20053;-79
2023/07/29 08:56:41;;;;;;;2.15;1.45;;;;;;;;;;6233934;28;20228;-78
2023/07/29 08:59:44;;;;;;;1.85;1.20;;;;;;;;;;6251045;28;20050;-78
2023/07/29 09:02:46;;;;;;;;;;;;;;;;;;6252884;28;21069;-80
2023/07/29 09:05:48;;;;;;;1.77;1.52;;;;;;;;;;6253892;28;20023;-79
2023/07/29 09:08:51;;;;;;;1.30;1.20;;;;;;;;;;6254802;28;20048;-76
2023/07/29 09:11:53;;;;;;;;;;;;;;;;;;6215044;28;20064;-77
2023/07/29 09:14:54;;;;;;;1.20;1.17;;;;;;;;;;6250070;28;20704;-80
2023/07/29 09:17:57;;;;;;;1.15;1.05;;;;;;;;;;6248619;28;20041;-80
2023/07/29 09:21:02;;;;;;;1.67;1.50;;;;;;;;;;6237176;28;20056;-80
2023/07/29 09:24:05;;;;;;;1.60;1.30;;;;;;;;;;6237472;28;20582;-77
2023/07/29 09:27:06;;;;;;;2.28;1.20;;;;;;;;;;6248489;28;20478;-77
2023/07/29 09:30:16;;;;;;;2.70;1.10;;;;;;;;;;6242905;28;20061;-78
2023/07/29 09:33:18;;;;;;;1.30;1.20;;;;;;;;;;6256790;28;20037;-78
2023/07/29 09:36:21;;;;;;;1.95;1.30;;;;;;;;;;6254001;28;20653;-79
2023/07/29 09:39:23;;;;;;;1.70;1.40;;;;;;;;;;6258140;28;20049;-78
2023/07/29 09:42:25;;;;;;;2.00;1.48;;;;;;;;;;6255928;28;20087;-78
2023/07/29 09:45:27;;;;;;;2.70;1.30;;;;;;;;;;6256995;28;20057;-78
2023/07/29 09:48:35;;;;;;;1.60;1.50;;;;;;;;;;6246377;28;20045;-77
2023/07/29 09:51:40;;;;;;;1.40;1.30;;;;;;;;;;6247642;28;20094;-79
2023/07/29 09:54:44;;;;;;;3.05;1.73;;;;;;;;;;6251622;28;20044;-79
2023/07/29 09:57:45;;;;;;;2.00;1.20;;;;;;;;;;6253367;28;20127;-80
2023/07/29 10:00:47;;;;;;;1.98;1.48;;;;;;;;;;6260675;28;20064;-77
2023/07/29 10:03:49;;;;;;;1.52;1.10;;;;;;;;;;6260458;28;21807;-79
2023/07/29 10:06:52;;;;;;;2.72;1.38;;;;;;;;;;6254955;28;20045;-77
2023/07/29 10:09:55;;;;;;;3.85;1.30;;;;;;;;;;6266566;28;20049;-76
2023/07/29 10:12:57;;;;;;;1.63;1.25;;;;;;;;;;6274046;28;20045;-75
2023/07/29 10:15:59;;;;;;;1.90;1.40;;;;;;;;;;6267960;28;20064;-78
2023/07/29 10:19:01;;;;;;;1.93;1.30;;;;;;;;;;6239574;28;20448;-77
2023/07/29 10:22:03;;;;;;;1.20;1.08;;;;;;;;;;6250917;28;20586;-79
2023/07/29 10:25:15;;;;;;;1.77;1.50;;;;;;;;;;6255103;28;20041;-77
2023/07/29 10:28:20;;;;;;;1.73;1.40;;;;;;;;;;6252851;28;20056;-77
2023/07/29 10:31:22;;;;;;;2.17;1.98;;;;;;;;;;6256520;28;20068;-75
2023/07/29 10:34:25;;;;;;;2.85;1.83;;;;;;;;;;6254820;28;20060;-76
2023/07/29 10:37:26;;;;;;;1.58;1.48;;;;;;;;;;6259236;28;20045;-77
2023/07/29 10:40:45;;;;;;;5.57;1.50;;;;;;;;;;6256929;28;20049;-77
2023/07/29 10:43:47;;;;;;;5.65;1.90;;;;;;;;;;6251761;28;20046;-78
2023/07/29 10:46:49;;;;;;;3.83;1.98;;;;;;;;;;6251379;28;20499;-78
2023/07/29 10:49:52;;;;;;;4.90;2.20;;;;;;;;;;6238207;28;20041;-78
2023/07/29 10:52:56;;;;;;;3.53;2.13;;;;;;;;;;6236279;28;20044;-79
2023/07/29 10:55:57;;;;;;;3.33;2.10;;;;;;;;;;6251567;28;20045;-78
2023/07/29 10:59:19;;;;;;;3.35;2.20;;;;;;;;;;6254353;28;20060;-79
2023/07/29 11:02:21;;;;;;;6.72;2.70;;;;;;;;;;6245173;28;20052;-78
2023/07/29 11:05:22;;;;;;;2.63;2.20;;;;;;;;;;6235368;28;20111;-77
2023/07/29 11:08:28;;;;;;;3.67;2.20;;;;;;;;;;6251832;28;21396;-79
2023/07/29 11:11:29;;;;;;;2.75;2.13;;;;;;;;;;6257666;28;20079;-80
2023/07/29 11:14:31;;;;;;;4.13;2.40;;;;;;;;;;6236673;28;20523;-77
2023/07/29 11:17:36;;;;;;;3.00;2.30;;;;;;;;;;6256892;28;20138;-79
2023/07/29 11:20:37;;;;;;;2.30;2.10;;;;;;;;;;6253242;28;20045;-79
2023/07/29 11:23:39;;;;;;;2.80;2.15;;;;;;;;;;6257755;28;20045;-78
2023/07/29 11:26:46;;;;;;;3.63;2.70;;;;;;;;;;6254585;28;20069;-77
2023/07/29 11:29:48;;;;;;;2.85;2.45;;;;;;;;;;6237466;28;20037;-79
2023/07/29 11:32:50;;;;;;;3.47;2.40;;;;;;;;;;6251166;28;20099;-80
2023/07/29 11:35:52;;;;;;;3.27;2.90;;;;;;;;;;6236701;28;20052;-80
2023/07/29 11:38:54;;;;;;;2.70;2.25;;;;;;;;;;6254625;28;20183;-79
2023/07/29 11:41:56;;;;;;;4.27;2.80;;;;;;;;;;6250737;28;20126;-80
2023/07/29 11:44:58;;;;;;;3.15;2.47;;;;;;;;;;6256068;28;20040;-77
2023/07/29 11:48:03;;;;;;;2.80;2.50;;;;;;;;;;6259144;28;20133;-77
2023/07/29 11:51:05;;;;;;;2.70;2.50;;;;;;;;;;6254758;28;20046;-78
2023/07/29 11:54:07;;;;;;;3.33;2.47;;;;;;;;;;6233666;28;20423;-79
2023/07/29 11:57:10;;;;;;;4.22;2.40;;;;;;;;;;6253775;28;20057;-77
2023/07/29 12:00:12;;;;;;;2.40;2.20;;;;;;;;;;6257097;28;20133;-80
2023/07/29 12:03:17;;;;;;;3.17;2.45;;;;;;;;;;6255397;28;20033;-77
2023/07/29 12:06:19;;;;;;;;;;;;;;;;;;6258215;28;20049;-80
2023/07/29 12:09:21;;;;;;;2.38;2.08;;;;;;;;;;6260622;28;19928;-77
2023/07/29 12:12:23;;;;;;;2.57;2.20;;;;;;;;;;6253338;28;20063;-80
2023/07/29 12:15:29;;;;;;;2.60;2.10;;;;;;;;;;6254578;28;20048;-80
2023/07/29 12:18:31;;;;;;;2.65;2.45;;;;;;;;;;6259101;28;20048;-78
2023/07/29 12:21:33;;;;;;;2.60;2.22;;;;;;;;;;6259904;28;20037;-76
2023/07/29 12:24:38;;;;;;;2.73;2.13;;;;;;;;;;6269127;28;20052;-78
2023/07/29 12:27:43;;;;;;;2.25;2.05;;;;;;;;;;6255946;28;20451;-78
2023/07/29 12:30:44;;;;;;;2.35;1.90;;;;;;;;;;6261184;28;20045;-77
2023/07/29 12:33:46;;;;;;;2.90;2.17;;;;;;;;;;6241726;28;20132;-78
2023/07/29 12:36:49;;;;;;;1.85;1.73;;;;;;;;;;6242371;28;20435;-79
2023/07/29 12:39:51;;;;;;;3.80;1.70;;;;;;;;;;6255251;28;20041;-79
2023/07/29 12:42:53;;;;;;;3.00;2.00;;;;;;;;;;6260581;28;20048;-79
2023/07/29 12:45:57;;;;;;;1.70;1.52;;;;;;;;;;6246132;28;20466;-79
2023/07/29 12:48:58;;;;;;;2.80;1.90;;;;;;;;;;6258158;28;20048;-80
2023/07/29 12:52:00;;;;;;;1.60;1.50;;;;;;;;;;6256943;28;20040;-81
2023/07/29 12:55:02;;;;;;;1.88;1.40;;;;;;;;;;6244427;28;20064;-78
2023/07/29 12:58:04;;;;;;;1.70;1.58;;;;;;;;;;6255374;28;20041;-77
2023/07/29 13:01:06;;;;;;;1.80;1.30;;;;;;;;;;6256210;28;20068;-77
2023/07/29 13:04:12;;;;;;;2.23;1.17;;;;;;;;;;6253116;28;20045;-76
2023/07/29 13:07:13;;;;;;;2.38;1.40;;;;;;;;;;6251580;28;20080;-77
2023/07/29 13:10:15;;;;;;;1.30;1.20;;;;;;;;;;6251669;28;20080;-77
2023/07/29 13:13:16;;;;;;;1.92;1.63;;;;;;;;;;6251537;28;20048;-77
2023/07/29 13:16:18;;;;;;;5.32;1.80;;;;;;;;;;6257834;28;20037;-79
2023/07/29 13:19:20;;;;;;;1.30;1.20;;;;;;;;;;6261494;28;20046;-80
2023/07/29 13:22:22;;;;;;;1.53;1.33;;;;;;;;;;6237726;28;20046;-79
2023/07/29 13:25:23;;;;;;;1.53;1.43;;;;;;;;;;6257085;28;20496;-79
2023/07/29 13:28:25;;;;;;;4.47;1.40;;;;;;;;;;6254907;28;20415;-78
2023/07/29 13:31:26;;;;;;;3.50;1.63;;;;;;;;;;6256745;28;20049;-78
2023/07/29 13:34:28;;;;;;;2.07;1.30;;;;;;;;;;6256780;28;20055;-79
2023/07/29 13:37:30;;;;;;;1.47;1.33;;;;;;;;;;6255792;28;20451;-77
2023/07/29 13:40:32;;;;;;;1.65;1.20;;;;;;;;;;6254163;28;20056;-77
2023/07/29 13:43:33;;;;;;;1.30;1.20;;;;;;;;;;6257024;28;20056;-79
2023/07/29 13:46:35;;;;;;;1.40;1.30;;;;;;;;;;6256207;28;20509;-79
2023/07/29 13:49:37;;;;;;;2.70;1.02;;;;;;;;;;6256186;28;20056;-76
2023/07/29 13:52:39;;;;;;;2.43;1.30;;;;;;;;;;6251716;28;20037;-76
2023/07/29 13:55:40;;;;;;;1.60;1.23;;;;;;;;;;6256666;28;20522;-77
2023/07/29 13:58:42;;;;;;;2.20;1.00;;;;;;;;;;6238978;28;21320;-77
2023/07/29 14:01:44;;;;;;;1.45;1.20;;;;;;;;;;6253479;28;20068;-76
2023/07/29 14:04:46;;;;;;;1.38;1.27;;;;;;;;;;6252284;28;20068;-78
2023/07/29 14:07:48;;;;;;;1.83;1.30;;;;;;;;;;6257330;28;20128;-77
2023/07/29 14:10:49;;;;;;;2.28;1.38;;;;;;;;;;6256409;28;20451;-76
2023/07/29 14:13:51;;;;;;;2.55;1.20;;;;;;;;;;6248292;28;20530;-78
2023/07/29 14:16:53;;;;;;;2.33;1.40;;;;;;;;;;6252836;28;20052;-76
2023/07/29 14:19:54;;;;;;;2.53;1.08;;;;;;;;;;6256878;28;20037;-78
2023/07/29 14:22:56;;;;;;;1.20;1.10;;;;;;;;;;6250903;28;20052;-77
2023/07/29 14:25:58;;;;;;;2.43;1.40;;;;;;;;;;6234894;28;20518;-77
2023/07/29 14:28:59;;;;;;;2.83;1.20;;;;;;;;;;6262408;28;20523;-78
2023/07/29 14:32:01;;;;;;;1.20;1.10;;;;;;;;;;6240102;28;20065;-76
2023/07/29 14:35:03;;;;;;;1.95;1.15;;;;;;;;;;6261535;28;20435;-78
2023/07/29 14:38:05;;;;;;;2.15;1.20;;;;;;;;;;6239965;28;20125;-77
2023/07/29 14:41:07;;;;;;;1.40;1.30;;;;;;;;;;6252701;28;20514;-77
2023/07/29 14:44:09;;;;;;;1.50;1.40;;;;;;;;;;6246890;28;20051;-77
2023/07/29 14:47:11;;;;;;;1.33;1.20;;;;;;;;;;6232656;28;20124;-77
2023/07/29 14:50:12;;;;;;;1.25;1.15;;;;;;;;;;6239803;28;20078;-76
2023/07/29 14:53:14;;;;;;;1.77;1.30;;;;;;;;;;6246709;28;20041;-77
2023/07/29 14:56:17;;;;;;;1.50;1.13;;;;;;;;;;6242028;28;20045;-78
2023/07/29 14:59:19;;;;;;;1.40;1.30;;;;;;;;;;6238209;28;20042;-77
2023/07/29 15:02:22;;;;;;;1.30;1.17;;;;;;;;;;6225810;28;20048;-78
2023/07/29 15:05:24;;;;;;;1.20;1.10;;;;;;;;;;6247485;28;20052;-79
2023/07/29 15:08:26;;;;;;;1.10;1.00;;;;;;;;;;6240106;28;20072;-79
2023/07/29 15:11:28;;;;;;;1.20;1.10;;;;;;;;;;6220697;28;20085;-77
2023/07/29 15:14:30;;;;;;;1.75;1.02;;;;;;;;;;6257441;28;20041;-77
2023/07/29 15:17:31;;;;;;;1.30;0.90;;;;;;;;;;6248514;28;20042;-77
2023/07/29 15:20:33;;;;;;;1.23;1.10;;;;;;;;;;6228171;28;20045;-78
2023/07/29 15:23:35;;;;;;;1.85;1.10;;;;;;;;;;6245133;28;20524;-77
2023/07/29 15:26:36;;;;;;;1.53;1.23;;;;;;;;;;6254954;28;20064;-78
2023/07/29 15:29:39;;;;;;;1.20;1.00;;;;;;;;;;6248052;28;21254;-79
2023/07/29 15:32:41;;;;;;;1.40;1.07;;;;;;;;;;6228402;28;20443;-76
2023/07/29 15:35:43;;;;;;;2.55;1.00;;;;;;;;;;6252746;28;20050;-77
2023/07/29 15:38:45;;;;;;;1.30;1.20;;;;;;;;;;6250191;28;20846;-77
2023/07/29 15:41:47;;;;;;;1.30;1.15;;;;;;;;;;6246116;28;20430;-77
2023/07/29 15:44:48;;;;;;;3.63;1.27;;;;;;;;;;6247844;28;20749;-79
2023/07/29 15:47:50;;;;;;;1.17;1.08;;;;;;;;;;6252801;28;20055;-78
2023/07/29 15:50:52;;;;;;;2.38;1.20;;;;;;;;;;6236535;28;20080;-77
2023/07/29 15:53:54;;;;;;;1.30;1.20;;;;;;;;;;6249380;28;20363;-76
2023/07/29 15:56:55;;;;;;;1.90;1.10;;;;;;;;;;6251523;28;20048;-77
2023/07/29 15:59:57;;;;;;;1.73;1.30;;;;;;;;;;6257980;28;20049;-79
2023/07/29 16:02:59;;;;;;;1.80;1.15;;;;;;;;;;6260934;28;20045;-79
2023/07/29 16:06:01;;;;;;;2.27;1.37;;;;;;;;;;6237333;28;20041;-78
2023/07/29 16:09:06;;;;;;;1.50;1.17;;;;;;;;;;6259226;28;20191;-77
2023/07/29 16:12:08;;;;;;;1.42;1.33;;;;;;;;;;6259645;28;20048;-77
2023/07/29 16:15:10;;;;;;;2.53;1.20;;;;;;;;;;6258368;28;20045;-76
2023/07/29 16:18:12;;;;;;;1.83;1.40;;;;;;;;;;6254040;28;20061;-78
2023/07/29 16:21:13;;;;;;;2.55;1.25;;;;;;;;;;6236760;28;20100;-79
2023/07/29 16:24:15;;;;;;;1.63;1.30;;;;;;;;;;6257212;28;20518;-76
2023/07/29 16:27:18;;;;;;;1.27;1.17;;;;;;;;;;6255545;28;20429;-77
2023/07/29 16:30:19;;;;;;;2.22;1.40;;;;;;;;;;6256814;28;20049;-78
2023/07/29 16:33:21;;;;;;;3.20;1.23;;;;;;;;;;6259947;28;20064;-77
2023/07/29 16:36:23;;;;;;;1.35;1.23;;;;;;;;;;6243232;28;20049;-79
2023/07/29 16:39:24;;;;;;;1.33;1.23;;;;;;;;;;6255944;28;20045;-78
2023/07/29 16:42:26;;;;;;;1.38;1.25;;;;;;;;;;6238465;28;20048;-76
2023/07/29 16:45:30;;;;;;;2.88;1.48;;;;;;;;;;6240296;28;20061;-78
2023/07/29 16:48:31;;;;;;;2.17;1.30;;;;;;;;;;6240928;28;20056;-76
2023/07/29 16:51:33;;;;;;;1.80;1.60;;;;;;;;;;6256954;28;20111;-77
2023/07/29 16:54:35;;;;;;;3.35;1.50;;;;;;;;;;6257656;28;20053;-76
2023/07/29 16:57:37;;;;;;;1.55;1.33;;;;;;;;;;6253860;28;20415;-76
2023/07/29 17:00:39;;;;;;;2.33;1.50;;;;;;;;;;6259628;28;20083;-77
2023/07/29 17:03:41;;;;;;;1.77;1.33;;;;;;;;;;6254786;28;20053;-77
2023/07/29 17:06:42;;;;;;;4.73;1.40;;;;;;;;;;6230270;28;20045;-76
2023/07/29 17:09:47;;;;;;;2.30;1.50;;;;;;;;;;6256278;28;20044;-77
2023/07/29 17:12:49;;;;;;;1.40;1.30;;;;;;;;;;6248856;28;20158;-77
2023/07/29 17:15:50;;;;;;;2.50;1.40;;;;;;;;;;6254221;28;20360;-78
2023/07/29 17:18:52;;;;;;;1.92;1.60;;;;;;;;;;6235051;28;20092;-77
2023/07/29 17:21:53;;;;;;;2.55;1.48;;;;;;;;;;6238420;28;20100;-76
2023/07/29 17:24:55;;;;;;;1.73;1.35;;;;;;;;;;6254350;28;20045;-77
2023/07/29 17:27:57;;;;;;;3.22;1.50;;;;;;;;;;6246494;28;20083;-77
2023/07/29 17:30:59;;;;;;;2.50;1.58;;;;;;;;;;6231561;28;20071;-77
2023/07/29 17:34:00;;;;;;;1.40;1.23;;;;;;;;;;6248873;28;20522;-76
2023/07/29 17:37:02;;;;;;;4.38;1.63;;;;;;;;;;6248689;28;20056;-75
2023/07/29 17:40:04;;;;;;;1.73;1.63;;;;;;;;;;6251034;28;20045;-75
2023/07/29 17:43:06;;;;;;;1.67;1.50;;;;;;;;;;6248190;28;20072;-77
2023/07/29 17:46:08;;;;;;;1.70;1.60;;;;;;;;;;6250605;28;20452;-76
2023/07/29 17:49:11;;;;;;;1.90;1.67;;;;;;;;;;6248681;28;20102;-77
2023/07/29 17:52:12;;;;;;;2.05;1.85;;;;;;;;;;6250630;28;20498;-76
2023/07/29 17:55:14;;;;;;;2.22;1.65;;;;;;;;;;6245631;28;20128;-79
2023/07/29 17:58:16;;;;;;;4.88;1.98;;;;;;;;;;6238335;28;20044;-78
2023/07/29 18:01:17;;;;;;;2.20;1.87;;;;;;;;;;6250477;28;20052;-78
2023/07/29 18:04:19;;;;;;;3.03;2.05;;;;;;;;;;6251906;28;20067;-78
2023/07/29 18:07:20;;;;;;;2.13;1.80;;;;;;;;;;6245399;28;20052;-77
2023/07/29 18:10:23;;;;;;;3.15;2.38;;;;;;;;;;6249555;28;20044;-75
2023/07/29 18:13:25;;;;;;;3.25;2.00;;;;;;;;;;6233038;28;20051;-77
2023/07/29 18:16:27;;;;;;;3.17;1.88;;;;;;;;;;6251807;28;20458;-77